sensor_id;sensor_type;location;lat;lon;timestamp;P1;durP1;ratioP1;P2;durP2;ratioP2
75450;SDS011;64029;48.244;9.188;2023-09-07T00:01:17;4.90;;;3.90;;
75450;SDS011;64029;48.244;9.188;2023-09-07T00:03:44;4.43;;;3.80;;
75450;SDS011;64029;48.244;9.188;2023-09-07T00:06:11;6.30;;;3.70;;
75450;SDS011;64029;48.244;9.188;2023-09-07T00:08:38;4.73;;;4.23;;
75450;SDS011;64029;48.244;9.188;2023-09-07T00:11:04;6.00;;;4.20;;
75450;SDS011;64029;48.244;9.188;2023-09-07T00:13:33;4.83;;;4.07;;
75450;SDS011;64029;48.244;9.188;2023-09-07T00:16:00;5.23;;;4.00;;
75450;SDS011;64029;48.244;9.188;2023-09-07T00:18:28;6.37;;;4.40;;
75450;SDS011;64029;48.244;9.188;2023-09-07T00:20:55;5.30;;;4.57;;
75450;SDS011;64029;48.244;9.188;2023-09-07T00:23:22;6.43;;;4.00;;
75450;SDS011;64029;48.244;9.188;2023-09-07T00:25:49;4.57;;;3.57;;
75450;SDS011;64029;48.244;9.188;2023-09-07T00:28:15;4.03;;;3.73;;
75450;SDS011;64029;48.244;9.188;2023-09-07T00:30:43;4.00;;;3.60;;
75450;SDS011;64029;48.244;9.188;2023-09-07T00:33:10;4.57;;;4.17;;
75450;SDS011;64029;48.244;9.188;2023-09-07T00:35:37;4.40;;;4.00;;
75450;SDS011;64029;48.244;9.188;2023-09-07T00:38:04;5.87;;;4.50;;
75450;SDS011;64029;48.244;9.188;2023-09-07T00:40:31;4.87;;;4.03;;
75450;SDS011;64029;48.244;9.188;2023-09-07T00:42:58;4.20;;;3.40;;
75450;SDS011;64029;48.244;9.188;2023-09-07T00:45:26;4.30;;;3.90;;
75450;SDS011;64029;48.244;9.188;2023-09-07T00:47:54;4.07;;;3.67;;
75450;SDS011;64029;48.244;9.188;2023-09-07T00:50:22;4.20;;;3.60;;
75450;SDS011;64029;48.244;9.188;2023-09-07T00:52:48;4.40;;;3.60;;
75450;SDS011;64029;48.244;9.188;2023-09-07T00:55:15;4.00;;;3.60;;
75450;SDS011;64029;48.244;9.188;2023-09-07T00:57:43;6.37;;;4.80;;
75450;SDS011;64029;48.244;9.188;2023-09-07T01:00:10;5.10;;;3.67;;
75450;SDS011;64029;48.244;9.188;2023-09-07T01:02:37;4.83;;;4.23;;
75450;SDS011;64029;48.244;9.188;2023-09-07T01:05:06;5.00;;;4.27;;
75450;SDS011;64029;48.244;9.188;2023-09-07T01:07:35;4.40;;;3.43;;
75450;SDS011;64029;48.244;9.188;2023-09-07T01:10:08;4.10;;;3.70;;
75450;SDS011;64029;48.244;9.188;2023-09-07T01:12:35;5.53;;;3.50;;
75450;SDS011;64029;48.244;9.188;2023-09-07T01:15:02;4.83;;;3.30;;
75450;SDS011;64029;48.244;9.188;2023-09-07T01:17:30;3.77;;;3.37;;
75450;SDS011;64029;48.244;9.188;2023-09-07T01:19:58;5.33;;;3.63;;
75450;SDS011;64029;48.244;9.188;2023-09-07T01:22:32;4.03;;;3.33;;
75450;SDS011;64029;48.244;9.188;2023-09-07T01:25:00;6.43;;;3.70;;
75450;SDS011;64029;48.244;9.188;2023-09-07T01:27:27;4.30;;;3.53;;
75450;SDS011;64029;48.244;9.188;2023-09-07T01:29:54;6.40;;;3.60;;
75450;SDS011;64029;48.244;9.188;2023-09-07T01:32:21;6.50;;;3.80;;
75450;SDS011;64029;48.244;9.188;2023-09-07T01:34:48;4.37;;;3.50;;
75450;SDS011;64029;48.244;9.188;2023-09-07T01:37:15;4.73;;;3.57;;
75450;SDS011;64029;48.244;9.188;2023-09-07T01:39:43;4.80;;;3.60;;
75450;SDS011;64029;48.244;9.188;2023-09-07T01:42:10;3.60;;;3.20;;
75450;SDS011;64029;48.244;9.188;2023-09-07T01:44:37;3.80;;;3.30;;
75450;SDS011;64029;48.244;9.188;2023-09-07T01:47:04;3.53;;;3.10;;
75450;SDS011;64029;48.244;9.188;2023-09-07T01:49:31;5.20;;;3.50;;
75450;SDS011;64029;48.244;9.188;2023-09-07T01:51:58;3.83;;;3.53;;
75450;SDS011;64029;48.244;9.188;2023-09-07T01:54:24;7.77;;;3.53;;
75450;SDS011;64029;48.244;9.188;2023-09-07T01:56:53;3.80;;;3.40;;
75450;SDS011;64029;48.244;9.188;2023-09-07T01:59:20;3.87;;;3.27;;
75450;SDS011;64029;48.244;9.188;2023-09-07T02:01:46;5.43;;;3.37;;
75450;SDS011;64029;48.244;9.188;2023-09-07T02:04:13;5.30;;;3.80;;
75450;SDS011;64029;48.244;9.188;2023-09-07T02:06:40;4.60;;;3.50;;
75450;SDS011;64029;48.244;9.188;2023-09-07T02:09:07;3.60;;;3.13;;
75450;SDS011;64029;48.244;9.188;2023-09-07T02:11:33;3.80;;;3.10;;
75450;SDS011;64029;48.244;9.188;2023-09-07T02:14:02;4.00;;;3.53;;
75450;SDS011;64029;48.244;9.188;2023-09-07T02:16:28;6.17;;;2.87;;
75450;SDS011;64029;48.244;9.188;2023-09-07T02:19:00;3.53;;;3.23;;
75450;SDS011;64029;48.244;9.188;2023-09-07T02:21:28;9.07;;;3.23;;
75450;SDS011;64029;48.244;9.188;2023-09-07T02:23:55;4.37;;;3.47;;
75450;SDS011;64029;48.244;9.188;2023-09-07T02:26:22;4.73;;;3.93;;
75450;SDS011;64029;48.244;9.188;2023-09-07T02:28:49;3.40;;;3.10;;
75450;SDS011;64029;48.244;9.188;2023-09-07T02:31:17;3.53;;;3.23;;
75450;SDS011;64029;48.244;9.188;2023-09-07T02:33:44;5.13;;;3.30;;
75450;SDS011;64029;48.244;9.188;2023-09-07T02:36:11;3.50;;;3.20;;
75450;SDS011;64029;48.244;9.188;2023-09-07T02:38:38;4.30;;;3.47;;
75450;SDS011;64029;48.244;9.188;2023-09-07T02:41:05;3.60;;;3.10;;
75450;SDS011;64029;48.244;9.188;2023-09-07T02:43:31;4.40;;;3.20;;
75450;SDS011;64029;48.244;9.188;2023-09-07T02:45:58;3.57;;;3.27;;
75450;SDS011;64029;48.244;9.188;2023-09-07T02:48:26;5.30;;;3.30;;
75450;SDS011;64029;48.244;9.188;2023-09-07T02:50:53;3.67;;;3.23;;
75450;SDS011;64029;48.244;9.188;2023-09-07T02:53:23;4.53;;;3.43;;
75450;SDS011;64029;48.244;9.188;2023-09-07T02:55:50;5.87;;;3.23;;
75450;SDS011;64029;48.244;9.188;2023-09-07T02:58:16;3.80;;;2.97;;
75450;SDS011;64029;48.244;9.188;2023-09-07T03:00:44;3.43;;;3.13;;
75450;SDS011;64029;48.244;9.188;2023-09-07T03:03:12;5.50;;;3.40;;
75450;SDS011;64029;48.244;9.188;2023-09-07T03:05:41;3.70;;;3.40;;
75450;SDS011;64029;48.244;9.188;2023-09-07T03:08:08;4.93;;;3.57;;
75450;SDS011;64029;48.244;9.188;2023-09-07T03:10:36;4.60;;;3.83;;
75450;SDS011;64029;48.244;9.188;2023-09-07T03:13:04;7.63;;;3.57;;
75450;SDS011;64029;48.244;9.188;2023-09-07T03:15:31;4.63;;;3.10;;
75450;SDS011;64029;48.244;9.188;2023-09-07T03:17:58;3.33;;;3.03;;
75450;SDS011;64029;48.244;9.188;2023-09-07T03:20:25;4.50;;;3.03;;
75450;SDS011;64029;48.244;9.188;2023-09-07T03:22:54;3.77;;;3.37;;
75450;SDS011;64029;48.244;9.188;2023-09-07T03:25:21;3.70;;;3.13;;
75450;SDS011;64029;48.244;9.188;2023-09-07T03:27:48;3.80;;;3.50;;
75450;SDS011;64029;48.244;9.188;2023-09-07T03:30:14;3.80;;;3.17;;
75450;SDS011;64029;48.244;9.188;2023-09-07T03:32:41;3.50;;;3.10;;
75450;SDS011;64029;48.244;9.188;2023-09-07T03:35:08;3.17;;;2.87;;
75450;SDS011;64029;48.244;9.188;2023-09-07T03:37:35;3.57;;;3.10;;
75450;SDS011;64029;48.244;9.188;2023-09-07T03:40:05;3.50;;;3.20;;
75450;SDS011;64029;48.244;9.188;2023-09-07T03:42:34;7.27;;;3.23;;
75450;SDS011;64029;48.244;9.188;2023-09-07T03:45:02;3.70;;;3.23;;
75450;SDS011;64029;48.244;9.188;2023-09-07T03:47:29;4.97;;;3.40;;
75450;SDS011;64029;48.244;9.188;2023-09-07T03:49:56;5.87;;;3.70;;
75450;SDS011;64029;48.244;9.188;2023-09-07T03:52:23;3.70;;;3.40;;
75450;SDS011;64029;48.244;9.188;2023-09-07T03:54:52;5.40;;;3.40;;
75450;SDS011;64029;48.244;9.188;2023-09-07T03:57:21;4.00;;;3.70;;
75450;SDS011;64029;48.244;9.188;2023-09-07T03:59:48;3.53;;;3.23;;
75450;SDS011;64029;48.244;9.188;2023-09-07T04:02:15;4.47;;;3.50;;
75450;SDS011;64029;48.244;9.188;2023-09-07T04:04:43;3.77;;;3.40;;
75450;SDS011;64029;48.244;9.188;2023-09-07T04:07:13;3.57;;;3.27;;
75450;SDS011;64029;48.244;9.188;2023-09-07T04:09:40;4.37;;;3.33;;
75450;SDS011;64029;48.244;9.188;2023-09-07T04:12:07;4.47;;;3.63;;
75450;SDS011;64029;48.244;9.188;2023-09-07T04:14:35;5.03;;;3.27;;
75450;SDS011;64029;48.244;9.188;2023-09-07T04:17:03;3.80;;;3.20;;
75450;SDS011;64029;48.244;9.188;2023-09-07T04:19:30;3.40;;;3.10;;
75450;SDS011;64029;48.244;9.188;2023-09-07T04:21:57;4.10;;;3.70;;
75450;SDS011;64029;48.244;9.188;2023-09-07T04:24:24;3.80;;;3.50;;
75450;SDS011;64029;48.244;9.188;2023-09-07T04:26:52;4.63;;;3.87;;
75450;SDS011;64029;48.244;9.188;2023-09-07T04:29:19;3.30;;;2.93;;
75450;SDS011;64029;48.244;9.188;2023-09-07T04:31:47;6.63;;;3.07;;
75450;SDS011;64029;48.244;9.188;2023-09-07T04:34:14;6.37;;;4.10;;
75450;SDS011;64029;48.244;9.188;2023-09-07T04:36:40;3.60;;;3.30;;
75450;SDS011;64029;48.244;9.188;2023-09-07T04:39:07;3.77;;;3.43;;
75450;SDS011;64029;48.244;9.188;2023-09-07T04:41:34;3.70;;;3.20;;
75450;SDS011;64029;48.244;9.188;2023-09-07T04:44:01;4.33;;;3.73;;
75450;SDS011;64029;48.244;9.188;2023-09-07T04:46:28;3.73;;;3.43;;
75450;SDS011;64029;48.244;9.188;2023-09-07T04:48:56;6.23;;;3.40;;
75450;SDS011;64029;48.244;9.188;2023-09-07T04:51:23;5.10;;;4.40;;
75450;SDS011;64029;48.244;9.188;2023-09-07T04:53:50;3.50;;;3.30;;
75450;SDS011;64029;48.244;9.188;2023-09-07T04:56:17;3.90;;;3.47;;
75450;SDS011;64029;48.244;9.188;2023-09-07T04:58:45;3.73;;;3.43;;
75450;SDS011;64029;48.244;9.188;2023-09-07T05:01:12;4.83;;;3.50;;
75450;SDS011;64029;48.244;9.188;2023-09-07T05:03:39;4.67;;;3.30;;
75450;SDS011;64029;48.244;9.188;2023-09-07T05:06:07;4.33;;;3.90;;
75450;SDS011;64029;48.244;9.188;2023-09-07T05:08:34;3.97;;;3.10;;
75450;SDS011;64029;48.244;9.188;2023-09-07T05:11:01;4.93;;;3.90;;
75450;SDS011;64029;48.244;9.188;2023-09-07T05:13:29;4.27;;;3.87;;
75450;SDS011;64029;48.244;9.188;2023-09-07T05:15:57;6.53;;;4.27;;
75450;SDS011;64029;48.244;9.188;2023-09-07T05:18:25;3.50;;;3.20;;
75450;SDS011;64029;48.244;9.188;2023-09-07T05:20:52;4.13;;;3.73;;
75450;SDS011;64029;48.244;9.188;2023-09-07T05:23:21;3.90;;;3.50;;
75450;SDS011;64029;48.244;9.188;2023-09-07T05:25:51;5.73;;;3.40;;
75450;SDS011;64029;48.244;9.188;2023-09-07T05:28:19;5.17;;;3.80;;
75450;SDS011;64029;48.244;9.188;2023-09-07T05:30:47;4.50;;;3.23;;
75450;SDS011;64029;48.244;9.188;2023-09-07T05:33:15;3.40;;;3.10;;
75450;SDS011;64029;48.244;9.188;2023-09-07T05:35:43;4.43;;;4.03;;
75450;SDS011;64029;48.244;9.188;2023-09-07T05:38:11;4.63;;;3.87;;
75450;SDS011;64029;48.244;9.188;2023-09-07T05:40:39;4.30;;;3.90;;
75450;SDS011;64029;48.244;9.188;2023-09-07T05:43:08;4.93;;;3.53;;
75450;SDS011;64029;48.244;9.188;2023-09-07T05:45:35;5.03;;;4.23;;
75450;SDS011;64029;48.244;9.188;2023-09-07T05:48:03;4.47;;;3.40;;
75450;SDS011;64029;48.244;9.188;2023-09-07T05:50:31;4.30;;;3.50;;
75450;SDS011;64029;48.244;9.188;2023-09-07T05:52:59;6.10;;;4.77;;
75450;SDS011;64029;48.244;9.188;2023-09-07T05:55:26;6.57;;;5.30;;
75450;SDS011;64029;48.244;9.188;2023-09-07T05:57:55;6.67;;;5.87;;
75450;SDS011;64029;48.244;9.188;2023-09-07T06:00:22;5.30;;;4.57;;
75450;SDS011;64029;48.244;9.188;2023-09-07T06:02:49;5.93;;;4.10;;
75450;SDS011;64029;48.244;9.188;2023-09-07T06:05:16;5.53;;;4.63;;
75450;SDS011;64029;48.244;9.188;2023-09-07T06:07:43;10.93;;;8.30;;
75450;SDS011;64029;48.244;9.188;2023-09-07T06:10:11;14.90;;;9.80;;
75450;SDS011;64029;48.244;9.188;2023-09-07T06:12:37;41.40;;;29.93;;
75450;SDS011;64029;48.244;9.188;2023-09-07T06:15:07;39.80;;;29.43;;
75450;SDS011;64029;48.244;9.188;2023-09-07T06:17:34;14.73;;;11.57;;
75450;SDS011;64029;48.244;9.188;2023-09-07T06:20:01;9.43;;;6.80;;
75450;SDS011;64029;48.244;9.188;2023-09-07T06:22:28;6.77;;;5.40;;
75450;SDS011;64029;48.244;9.188;2023-09-07T06:24:55;9.40;;;5.50;;
75450;SDS011;64029;48.244;9.188;2023-09-07T06:27:22;8.90;;;5.70;;
75450;SDS011;64029;48.244;9.188;2023-09-07T06:29:49;13.23;;;6.07;;
75450;SDS011;64029;48.244;9.188;2023-09-07T06:32:18;9.73;;;5.07;;
75450;SDS011;64029;48.244;9.188;2023-09-07T06:34:45;9.70;;;5.00;;
75450;SDS011;64029;48.244;9.188;2023-09-07T06:37:12;5.37;;;4.87;;
75450;SDS011;64029;48.244;9.188;2023-09-07T06:39:39;6.50;;;5.17;;
75450;SDS011;64029;48.244;9.188;2023-09-07T06:42:07;9.03;;;5.00;;
75450;SDS011;64029;48.244;9.188;2023-09-07T06:44:34;5.80;;;5.27;;
75450;SDS011;64029;48.244;9.188;2023-09-07T06:47:01;6.77;;;5.27;;
75450;SDS011;64029;48.244;9.188;2023-09-07T06:49:30;6.80;;;5.60;;
75450;SDS011;64029;48.244;9.188;2023-09-07T06:51:57;6.00;;;5.30;;
75450;SDS011;64029;48.244;9.188;2023-09-07T06:54:24;7.40;;;5.60;;
75450;SDS011;64029;48.244;9.188;2023-09-07T06:56:51;6.03;;;5.47;;
75450;SDS011;64029;48.244;9.188;2023-09-07T06:59:17;6.10;;;5.50;;
75450;SDS011;64029;48.244;9.188;2023-09-07T07:01:44;5.70;;;5.20;;
75450;SDS011;64029;48.244;9.188;2023-09-07T07:04:11;6.60;;;5.57;;
75450;SDS011;64029;48.244;9.188;2023-09-07T07:06:39;8.17;;;5.20;;
75450;SDS011;64029;48.244;9.188;2023-09-07T07:09:06;6.60;;;5.67;;
75450;SDS011;64029;48.244;9.188;2023-09-07T07:11:34;7.13;;;5.07;;
75450;SDS011;64029;48.244;9.188;2023-09-07T07:14:01;7.97;;;5.00;;
75450;SDS011;64029;48.244;9.188;2023-09-07T07:16:27;9.30;;;6.10;;
75450;SDS011;64029;48.244;9.188;2023-09-07T07:18:54;6.87;;;6.17;;
75450;SDS011;64029;48.244;9.188;2023-09-07T07:21:21;8.50;;;7.63;;
75450;SDS011;64029;48.244;9.188;2023-09-07T07:23:51;9.77;;;8.00;;
75450;SDS011;64029;48.244;9.188;2023-09-07T07:26:17;12.70;;;8.80;;
75450;SDS011;64029;48.244;9.188;2023-09-07T07:28:45;11.17;;;8.50;;
75450;SDS011;64029;48.244;9.188;2023-09-07T07:31:11;8.23;;;7.43;;
75450;SDS011;64029;48.244;9.188;2023-09-07T07:33:38;11.33;;;8.40;;
75450;SDS011;64029;48.244;9.188;2023-09-07T07:36:05;10.87;;;8.37;;
75450;SDS011;64029;48.244;9.188;2023-09-07T07:38:32;10.17;;;7.80;;
75450;SDS011;64029;48.244;9.188;2023-09-07T07:41:00;11.20;;;8.37;;
75450;SDS011;64029;48.244;9.188;2023-09-07T07:43:27;9.10;;;8.00;;
75450;SDS011;64029;48.244;9.188;2023-09-07T07:45:55;11.70;;;8.33;;
75450;SDS011;64029;48.244;9.188;2023-09-07T07:48:23;8.63;;;7.73;;
75450;SDS011;64029;48.244;9.188;2023-09-07T07:50:49;8.90;;;8.00;;
75450;SDS011;64029;48.244;9.188;2023-09-07T07:53:16;10.27;;;7.60;;
75450;SDS011;64029;48.244;9.188;2023-09-07T07:55:43;9.70;;;8.70;;
75450;SDS011;64029;48.244;9.188;2023-09-07T07:58:11;9.77;;;8.30;;
75450;SDS011;64029;48.244;9.188;2023-09-07T08:00:38;8.93;;;7.70;;
75450;SDS011;64029;48.244;9.188;2023-09-07T08:03:06;7.70;;;6.60;;
75450;SDS011;64029;48.244;9.188;2023-09-07T08:05:34;8.37;;;7.57;;
75450;SDS011;64029;48.244;9.188;2023-09-07T08:08:01;10.67;;;7.60;;
75450;SDS011;64029;48.244;9.188;2023-09-07T08:10:28;7.80;;;7.00;;
75450;SDS011;64029;48.244;9.188;2023-09-07T08:12:56;8.47;;;7.17;;
75450;SDS011;64029;48.244;9.188;2023-09-07T08:15:24;7.77;;;7.07;;
75450;SDS011;64029;48.244;9.188;2023-09-07T08:17:51;7.83;;;7.10;;
75450;SDS011;64029;48.244;9.188;2023-09-07T08:20:18;8.00;;;6.90;;
75450;SDS011;64029;48.244;9.188;2023-09-07T08:22:45;9.00;;;8.10;;
75450;SDS011;64029;48.244;9.188;2023-09-07T08:25:13;8.10;;;7.30;;
75450;SDS011;64029;48.244;9.188;2023-09-07T08:27:40;8.90;;;8.00;;
75450;SDS011;64029;48.244;9.188;2023-09-07T08:30:10;9.90;;;7.30;;
75450;SDS011;64029;48.244;9.188;2023-09-07T08:32:39;8.77;;;7.70;;
75450;SDS011;64029;48.244;9.188;2023-09-07T08:35:06;7.93;;;6.70;;
75450;SDS011;64029;48.244;9.188;2023-09-07T08:37:34;7.50;;;6.80;;
75450;SDS011;64029;48.244;9.188;2023-09-07T08:40:01;6.90;;;6.30;;
75450;SDS011;64029;48.244;9.188;2023-09-07T08:42:30;8.97;;;8.07;;
75450;SDS011;64029;48.244;9.188;2023-09-07T08:44:57;6.73;;;6.03;;
75450;SDS011;64029;48.244;9.188;2023-09-07T08:47:31;11.90;;;7.63;;
75450;SDS011;64029;48.244;9.188;2023-09-07T08:50:01;10.97;;;8.77;;
75450;SDS011;64029;48.244;9.188;2023-09-07T08:52:31;8.00;;;7.13;;
75450;SDS011;64029;48.244;9.188;2023-09-07T08:54:58;8.07;;;7.30;;
75450;SDS011;64029;48.244;9.188;2023-09-07T08:57:28;8.60;;;7.30;;
75450;SDS011;64029;48.244;9.188;2023-09-07T08:59:56;10.97;;;8.40;;
75450;SDS011;64029;48.244;9.188;2023-09-07T09:02:26;8.70;;;7.90;;
75450;SDS011;64029;48.244;9.188;2023-09-07T09:04:53;8.93;;;8.03;;
75450;SDS011;64029;48.244;9.188;2023-09-07T09:07:21;7.53;;;6.83;;
75450;SDS011;64029;48.244;9.188;2023-09-07T09:09:48;8.10;;;7.20;;
75450;SDS011;64029;48.244;9.188;2023-09-07T09:12:15;9.17;;;7.33;;
75450;SDS011;64029;48.244;9.188;2023-09-07T09:14:43;8.30;;;7.50;;
75450;SDS011;64029;48.244;9.188;2023-09-07T09:17:13;8.70;;;7.80;;
75450;SDS011;64029;48.244;9.188;2023-09-07T09:19:40;8.00;;;7.30;;
75450;SDS011;64029;48.244;9.188;2023-09-07T09:22:07;7.97;;;7.10;;
75450;SDS011;64029;48.244;9.188;2023-09-07T09:24:36;10.13;;;7.40;;
75450;SDS011;64029;48.244;9.188;2023-09-07T09:27:03;9.20;;;7.07;;
75450;SDS011;64029;48.244;9.188;2023-09-07T09:29:32;7.63;;;6.93;;
75450;SDS011;64029;48.244;9.188;2023-09-07T09:31:59;7.17;;;6.50;;
75450;SDS011;64029;48.244;9.188;2023-09-07T09:34:30;7.37;;;6.67;;
75450;SDS011;64029;48.244;9.188;2023-09-07T09:36:58;9.77;;;7.20;;
75450;SDS011;64029;48.244;9.188;2023-09-07T09:39:26;7.83;;;7.03;;
75450;SDS011;64029;48.244;9.188;2023-09-07T09:41:54;7.50;;;6.80;;
75450;SDS011;64029;48.244;9.188;2023-09-07T09:44:22;8.00;;;7.20;;
75450;SDS011;64029;48.244;9.188;2023-09-07T09:46:51;7.83;;;7.13;;
75450;SDS011;64029;48.244;9.188;2023-09-07T09:49:20;8.67;;;7.10;;
75450;SDS011;64029;48.244;9.188;2023-09-07T09:51:47;8.87;;;7.20;;
75450;SDS011;64029;48.244;9.188;2023-09-07T09:54:16;8.03;;;7.23;;
75450;SDS011;64029;48.244;9.188;2023-09-07T09:56:43;7.90;;;7.23;;
75450;SDS011;64029;48.244;9.188;2023-09-07T09:59:12;7.97;;;7.00;;
75450;SDS011;64029;48.244;9.188;2023-09-07T10:01:40;7.70;;;7.00;;
75450;SDS011;64029;48.244;9.188;2023-09-07T10:04:10;8.53;;;7.83;;
75450;SDS011;64029;48.244;9.188;2023-09-07T10:06:38;11.90;;;7.50;;
75450;SDS011;64029;48.244;9.188;2023-09-07T10:09:06;7.43;;;6.73;;
75450;SDS011;64029;48.244;9.188;2023-09-07T10:11:36;7.23;;;6.63;;
75450;SDS011;64029;48.244;9.188;2023-09-07T10:14:04;8.03;;;7.23;;
75450;SDS011;64029;48.244;9.188;2023-09-07T10:16:43;8.60;;;7.57;;
75450;SDS011;64029;48.244;9.188;2023-09-07T10:19:14;8.97;;;6.90;;
75450;SDS011;64029;48.244;9.188;2023-09-07T10:21:41;7.50;;;6.80;;
75450;SDS011;64029;48.244;9.188;2023-09-07T10:24:09;7.60;;;6.80;;
75450;SDS011;64029;48.244;9.188;2023-09-07T10:26:36;12.23;;;6.80;;
75450;SDS011;64029;48.244;9.188;2023-09-07T10:29:03;7.23;;;6.63;;
75450;SDS011;64029;48.244;9.188;2023-09-07T10:31:30;7.60;;;6.90;;
75450;SDS011;64029;48.244;9.188;2023-09-07T10:34:08;6.73;;;6.13;;
75450;SDS011;64029;48.244;9.188;2023-09-07T10:36:37;7.03;;;6.33;;
75450;SDS011;64029;48.244;9.188;2023-09-07T10:39:04;7.23;;;6.53;;
75450;SDS011;64029;48.244;9.188;2023-09-07T10:41:39;9.57;;;6.73;;
75450;SDS011;64029;48.244;9.188;2023-09-07T10:44:07;7.70;;;6.90;;
75450;SDS011;64029;48.244;9.188;2023-09-07T10:46:35;7.53;;;6.83;;
75450;SDS011;64029;48.244;9.188;2023-09-07T10:49:05;7.70;;;6.90;;
75450;SDS011;64029;48.244;9.188;2023-09-07T10:51:40;6.90;;;6.30;;
75450;SDS011;64029;48.244;9.188;2023-09-07T10:54:15;7.00;;;6.30;;
75450;SDS011;64029;48.244;9.188;2023-09-07T10:56:43;6.87;;;6.27;;
75450;SDS011;64029;48.244;9.188;2023-09-07T10:59:12;7.13;;;6.43;;
75450;SDS011;64029;48.244;9.188;2023-09-07T11:01:39;7.20;;;6.60;;
75450;SDS011;64029;48.244;9.188;2023-09-07T11:04:06;8.77;;;7.40;;
75450;SDS011;64029;48.244;9.188;2023-09-07T11:06:36;7.87;;;6.90;;
75450;SDS011;64029;48.244;9.188;2023-09-07T11:09:05;7.30;;;6.60;;
75450;SDS011;64029;48.244;9.188;2023-09-07T11:11:34;7.53;;;6.80;;
75450;SDS011;64029;48.244;9.188;2023-09-07T11:14:01;7.00;;;6.00;;
75450;SDS011;64029;48.244;9.188;2023-09-07T11:16:29;6.73;;;6.13;;
75450;SDS011;64029;48.244;9.188;2023-09-07T11:18:56;6.97;;;6.37;;
75450;SDS011;64029;48.244;9.188;2023-09-07T11:21:25;6.70;;;6.10;;
75450;SDS011;64029;48.244;9.188;2023-09-07T11:23:52;7.60;;;6.80;;
75450;SDS011;64029;48.244;9.188;2023-09-07T11:26:20;6.83;;;6.20;;
75450;SDS011;64029;48.244;9.188;2023-09-07T11:28:48;7.90;;;7.20;;
75450;SDS011;64029;48.244;9.188;2023-09-07T11:31:18;7.47;;;6.77;;
75450;SDS011;64029;48.244;9.188;2023-09-07T11:33:46;7.57;;;6.87;;
75450;SDS011;64029;48.244;9.188;2023-09-07T11:36:14;7.13;;;6.50;;
75450;SDS011;64029;48.244;9.188;2023-09-07T11:38:42;6.90;;;6.17;;
75450;SDS011;64029;48.244;9.188;2023-09-07T11:41:11;7.87;;;6.53;;
75450;SDS011;64029;48.244;9.188;2023-09-07T11:43:39;7.40;;;6.77;;
75450;SDS011;64029;48.244;9.188;2023-09-07T11:46:07;7.80;;;7.10;;
75450;SDS011;64029;48.244;9.188;2023-09-07T11:48:33;9.90;;;7.00;;
75450;SDS011;64029;48.244;9.188;2023-09-07T11:51:00;7.40;;;6.70;;
75450;SDS011;64029;48.244;9.188;2023-09-07T11:53:27;7.40;;;6.70;;
75450;SDS011;64029;48.244;9.188;2023-09-07T11:55:55;7.83;;;7.00;;
75450;SDS011;64029;48.244;9.188;2023-09-07T11:58:22;7.80;;;6.93;;
75450;SDS011;64029;48.244;9.188;2023-09-07T12:00:52;8.57;;;6.90;;
75450;SDS011;64029;48.244;9.188;2023-09-07T12:03:20;7.47;;;6.80;;
75450;SDS011;64029;48.244;9.188;2023-09-07T12:05:47;7.87;;;7.13;;
75450;SDS011;64029;48.244;9.188;2023-09-07T12:08:14;7.60;;;6.90;;
75450;SDS011;64029;48.244;9.188;2023-09-07T12:10:41;8.70;;;6.70;;
75450;SDS011;64029;48.244;9.188;2023-09-07T12:13:08;7.03;;;6.33;;
75450;SDS011;64029;48.244;9.188;2023-09-07T12:15:35;7.30;;;6.60;;
75450;SDS011;64029;48.244;9.188;2023-09-07T12:18:03;7.27;;;6.57;;
75450;SDS011;64029;48.244;9.188;2023-09-07T12:20:30;7.43;;;6.73;;
75450;SDS011;64029;48.244;9.188;2023-09-07T12:22:56;7.30;;;6.70;;
75450;SDS011;64029;48.244;9.188;2023-09-07T12:25:23;7.20;;;6.60;;
75450;SDS011;64029;48.244;9.188;2023-09-07T12:27:50;7.57;;;6.97;;
75450;SDS011;64029;48.244;9.188;2023-09-07T12:30:17;6.63;;;6.10;;
75450;SDS011;64029;48.244;9.188;2023-09-07T12:32:45;9.60;;;7.07;;
75450;SDS011;64029;48.244;9.188;2023-09-07T12:35:13;7.87;;;6.90;;
75450;SDS011;64029;48.244;9.188;2023-09-07T12:37:40;7.83;;;6.97;;
75450;SDS011;64029;48.244;9.188;2023-09-07T12:40:07;8.27;;;7.47;;
75450;SDS011;64029;48.244;9.188;2023-09-07T12:42:37;7.90;;;7.20;;
75450;SDS011;64029;48.244;9.188;2023-09-07T12:45:06;8.60;;;6.73;;
75450;SDS011;64029;48.244;9.188;2023-09-07T12:47:33;10.80;;;7.77;;
75450;SDS011;64029;48.244;9.188;2023-09-07T12:50:00;7.53;;;6.50;;
75450;SDS011;64029;48.244;9.188;2023-09-07T12:52:28;8.10;;;7.10;;
75450;SDS011;64029;48.244;9.188;2023-09-07T12:54:55;7.53;;;6.70;;
75450;SDS011;64029;48.244;9.188;2023-09-07T12:57:22;7.30;;;6.67;;
75450;SDS011;64029;48.244;9.188;2023-09-07T12:59:49;7.80;;;7.00;;
75450;SDS011;64029;48.244;9.188;2023-09-07T13:02:16;7.17;;;6.57;;
75450;SDS011;64029;48.244;9.188;2023-09-07T13:04:43;7.37;;;6.57;;
75450;SDS011;64029;48.244;9.188;2023-09-07T13:07:09;7.50;;;6.80;;
75450;SDS011;64029;48.244;9.188;2023-09-07T13:09:38;7.47;;;6.77;;
75450;SDS011;64029;48.244;9.188;2023-09-07T13:12:05;7.40;;;6.70;;
75450;SDS011;64029;48.244;9.188;2023-09-07T13:14:32;6.40;;;5.80;;
75450;SDS011;64029;48.244;9.188;2023-09-07T13:16:59;7.70;;;6.63;;
75450;SDS011;64029;48.244;9.188;2023-09-07T13:19:26;7.50;;;6.70;;
75450;SDS011;64029;48.244;9.188;2023-09-07T13:21:54;10.90;;;7.13;;
75450;SDS011;64029;48.244;9.188;2023-09-07T13:24:21;11.80;;;7.77;;
75450;SDS011;64029;48.244;9.188;2023-09-07T13:26:50;9.03;;;6.50;;
75450;SDS011;64029;48.244;9.188;2023-09-07T13:29:17;7.47;;;6.67;;
75450;SDS011;64029;48.244;9.188;2023-09-07T13:31:44;8.63;;;6.90;;
75450;SDS011;64029;48.244;9.188;2023-09-07T13:34:11;13.60;;;6.77;;
75450;SDS011;64029;48.244;9.188;2023-09-07T13:36:38;8.20;;;7.10;;
75450;SDS011;64029;48.244;9.188;2023-09-07T13:39:05;10.07;;;6.70;;
75450;SDS011;64029;48.244;9.188;2023-09-07T13:41:32;8.77;;;6.67;;
75450;SDS011;64029;48.244;9.188;2023-09-07T13:44:00;7.40;;;6.70;;
75450;SDS011;64029;48.244;9.188;2023-09-07T13:46:27;7.07;;;6.37;;
75450;SDS011;64029;48.244;9.188;2023-09-07T13:48:54;7.70;;;6.80;;
75450;SDS011;64029;48.244;9.188;2023-09-07T13:51:21;7.37;;;6.67;;
75450;SDS011;64029;48.244;9.188;2023-09-07T13:53:49;9.80;;;6.67;;
75450;SDS011;64029;48.244;9.188;2023-09-07T13:56:16;8.20;;;6.80;;
75450;SDS011;64029;48.244;9.188;2023-09-07T13:58:43;9.03;;;6.37;;
75450;SDS011;64029;48.244;9.188;2023-09-07T14:01:12;6.90;;;5.97;;
75450;SDS011;64029;48.244;9.188;2023-09-07T14:03:39;10.40;;;7.10;;
75450;SDS011;64029;48.244;9.188;2023-09-07T14:06:06;7.07;;;6.37;;
75450;SDS011;64029;48.244;9.188;2023-09-07T14:08:33;7.43;;;6.60;;
75450;SDS011;64029;48.244;9.188;2023-09-07T14:11:00;7.00;;;6.40;;
75450;SDS011;64029;48.244;9.188;2023-09-07T14:13:27;7.20;;;6.50;;
75450;SDS011;64029;48.244;9.188;2023-09-07T14:15:53;9.87;;;6.40;;
75450;SDS011;64029;48.244;9.188;2023-09-07T14:18:22;7.70;;;6.10;;
75450;SDS011;64029;48.244;9.188;2023-09-07T14:20:48;9.70;;;6.30;;
75450;SDS011;64029;48.244;9.188;2023-09-07T14:23:15;6.90;;;6.20;;
75450;SDS011;64029;48.244;9.188;2023-09-07T14:25:42;8.13;;;6.70;;
75450;SDS011;64029;48.244;9.188;2023-09-07T14:28:10;6.43;;;5.83;;
75450;SDS011;64029;48.244;9.188;2023-09-07T14:30:37;7.03;;;6.30;;
75450;SDS011;64029;48.244;9.188;2023-09-07T14:33:04;6.83;;;6.23;;
75450;SDS011;64029;48.244;9.188;2023-09-07T14:35:32;7.60;;;6.90;;
75450;SDS011;64029;48.244;9.188;2023-09-07T14:37:59;7.63;;;6.93;;
75450;SDS011;64029;48.244;9.188;2023-09-07T14:40:26;7.87;;;7.07;;
75450;SDS011;64029;48.244;9.188;2023-09-07T14:42:53;7.10;;;6.40;;
75450;SDS011;64029;48.244;9.188;2023-09-07T14:45:22;7.83;;;7.07;;
75450;SDS011;64029;48.244;9.188;2023-09-07T14:47:49;9.60;;;6.97;;